Time;durP1;ratioP1;P1;durP2;ratioP2;P2;SDS_P1;SDS_P2;PMS_P1;PMS_P2;Temp;Humidity;BMP_temperature;BMP_pressure;BME280_temperature;BME280_humidity;BME280_pressure;Samples;Min_cycle;Max_cycle;Signal;HPM_P1;HPM_P2
2022/01/31 00:01:00;;;;;;;0.50;0.30;;;;;;;3.47;62.48;95006.41;5094718;28;21009;-54
2022/01/31 00:03:33;;;;;;;0.50;0.43;;;;;;;3.01;64.10;95015.16;5094655;28;20471;-54
2022/01/31 00:06:07;;;;;;;0.30;0.30;;;;;;;3.74;59.37;95010.06;5094378;28;20428;-53
2022/01/31 00:08:36;;;;;;;0.30;0.20;;;;;;;4.01;58.53;94997.19;5094870;28;20416;-54
2022/01/31 00:11:05;;;;;;;0.30;0.20;;;;;;;3.44;60.40;94996.38;5094459;28;20529;-54
2022/01/31 00:13:38;;;;;;;0.30;0.20;;;;;;;3.62;61.21;95005.91;5094550;28;20463;-54
2022/01/31 00:16:13;;;;;;;0.30;0.20;;;;;;;3.37;61.09;94998.34;5093239;28;20475;-53
2022/01/31 00:18:46;;;;;;;1.10;1.10;;;;;;;3.19;59.72;94959.22;5094683;28;20432;-53
2022/01/31 00:21:15;;;;;;;0.30;0.20;;;;;;;2.88;58.82;94925.63;5094624;28;20497;-53
2022/01/31 00:23:44;;;;;;;0.30;0.20;;;;;;;3.45;56.85;94953.47;5094352;28;20917;-53
2022/01/31 00:26:13;;;;;;;0.30;0.20;;;;;;;3.85;56.87;94987.47;5094495;28;20421;-53
2022/01/31 00:28:42;;;;;;;1.70;1.70;;;;;;;2.77;56.59;94881.94;5094245;28;20428;-53
2022/01/31 00:31:11;;;;;;;1.80;1.47;;;;;;;2.50;58.72;94894.75;5094363;28;20860;-53
2022/01/31 00:33:40;;;;;;;0.30;0.20;;;;;;;3.71;56.83;94992.22;5094190;28;20464;-53
2022/01/31 00:36:11;;;;;;;0.30;0.20;;;;;;;2.50;57.02;94845.81;5094125;28;20988;-53
2022/01/31 00:38:40;;;;;;;0.40;0.30;;;;;;;3.16;54.43;95041.66;5094063;28;20444;-53
2022/01/31 00:41:10;;;;;;;0.30;0.20;;;;;;;2.65;54.22;94873.34;5094027;28;21186;-53
2022/01/31 00:43:55;;;;;;;0.30;0.20;;;;;;;3.06;55.26;94965.50;5093594;28;20440;-53
2022/01/31 00:46:38;;;;;;;0.37;0.37;;;;;;;3.13;55.60;94949.69;5094234;28;20424;-53
2022/01/31 00:49:15;;;;;;;0.30;0.20;;;;;;;2.59;57.55;94958.75;5092636;28;20907;-54
2022/01/31 00:51:47;;;;;;;0.60;0.60;;;;;;;3.21;56.51;95007.72;5092894;28;20505;-53
2022/01/31 00:54:16;;;;;;;0.30;0.20;;;;;;;1.35;55.48;94765.66;5093763;28;20432;-53
2022/01/31 00:56:45;;;;;;;0.30;0.20;;;;;;;3.08;56.71;95025.50;5093651;28;20433;-53
2022/01/31 00:59:13;;;;;;;2.77;2.60;;;;;;;0.83;54.78;94672.56;5092508;28;20482;-53
2022/01/31 01:01:42;;;;;;;0.30;0.20;;;;;;;3.01;56.12;94988.97;5093814;28;20445;-53
2022/01/31 01:04:11;;;;;;;0.30;0.20;;;;;;;3.47;55.10;95019.50;5093508;28;20428;-53
2022/01/31 01:06:40;;;;;;;0.30;0.20;;;;;;;2.83;54.56;94902.78;5093452;28;20485;-53
2022/01/31 01:09:12;;;;;;;2.27;2.20;;;;;;;3.21;56.89;95026.03;5093428;28;20456;-53
2022/01/31 01:11:52;;;;;;;0.30;0.20;;;;;;;2.06;57.46;94888.25;5093353;28;20472;-53
2022/01/31 01:14:29;;;;;;;2.10;0.60;;;;;;;3.21;56.82;95022.66;5093368;28;20420;-53
2022/01/31 01:17:04;;;;;;;0.47;0.47;;;;;;;3.02;56.76;95034.28;5093636;28;20459;-53
2022/01/31 01:19:34;;;;;;;0.30;0.30;;;;;;;2.83;59.20;95031.00;5093275;28;20507;-53
2022/01/31 01:22:03;;;;;;;0.30;0.20;;;;;;;3.11;57.61;95025.06;5093268;28;20486;-53
2022/01/31 01:24:34;;;;;;;0.30;0.20;;;;;;;3.49;54.82;95017.44;5093244;28;20428;-53
2022/01/31 01:27:14;;;;;;;0.27;0.20;;;;;;;2.08;56.34;94862.69;5092709;28;20448;-53
2022/01/31 01:30:00;;;;;;;0.30;0.20;;;;;;;2.75;54.74;94902.31;5093444;28;20506;-53
2022/01/31 01:32:44;;;;;;;0.30;0.20;;;;;;;2.58;55.65;94938.06;5092350;28;20479;-53
2022/01/31 01:35:20;;;;;;;0.30;0.20;;;;;;;3.07;54.12;95008.19;5093083;28;20434;-53
2022/01/31 01:37:53;;;;;;;0.43;0.43;;;;;;;3.08;53.63;94983.63;5093312;28;20836;-53
2022/01/31 01:40:24;;;;;;;0.30;0.20;;;;;;;2.96;52.63;94923.44;5092987;28;20913;-53
2022/01/31 01:42:53;;;;;;;0.30;0.30;;;;;;;2.64;54.66;94950.22;5092900;28;20850;-53
2022/01/31 01:45:21;;;;;;;0.20;0.20;;;;;;;2.29;54.57;94901.34;5092959;28;20936;-53
2022/01/31 01:47:50;;;;;;;0.40;0.40;;;;;;;3.39;53.56;95001.53;5092608;28;20460;-53
2022/01/31 01:50:19;;;;;;;0.50;0.50;;;;;;;3.79;52.58;95025.88;5092681;28;20533;-53
2022/01/31 01:52:50;;;;;;;0.30;0.20;;;;;;;2.01;51.34;94725.31;5092335;28;20476;-53
2022/01/31 01:55:20;;;;;;;0.30;0.30;;;;;;;3.61;52.26;95026.09;5092819;28;20456;-53
2022/01/31 01:57:50;;;;;;;0.30;0.20;;;;;;;3.42;53.39;95011.53;5092560;28;20925;-53
2022/01/31 02:00:26;;;;;;;0.30;0.20;;;;;;;2.62;53.13;94905.19;5092521;28;20425;-53
2022/01/31 02:02:58;;;;;;;0.30;0.20;;;;;;;3.42;53.38;95006.31;5092473;28;20436;-53
2022/01/31 02:05:44;;;;;;;0.30;0.20;;;;;;;3.06;54.84;95006.63;5092776;28;20483;-53
2022/01/31 02:08:14;;;;;;;1.00;1.00;;;;;;;3.32;53.67;95010.53;5092149;28;20440;-53
2022/01/31 02:10:42;;;;;;;0.30;0.20;;;;;;;2.45;53.33;94874.47;5092112;28;20425;-53
2022/01/31 02:13:15;;;;;;;0.30;0.20;;;;;;;2.76;54.51;95003.34;5092358;28;20547;-53
2022/01/31 02:15:49;;;;;;;0.40;0.40;;;;;;;2.16;56.38;94917.25;5092607;28;20459;-53
2022/01/31 02:18:29;;;;;;;0.30;0.20;;;;;;;2.73;53.67;94993.34;5092275;28;20980;-53
2022/01/31 02:21:00;;;;;;;0.30;0.20;;;;;;;3.19;52.40;95016.84;5090980;28;20886;-54
2022/01/31 02:23:29;;;;;;;0.73;0.73;;;;;;;2.87;52.72;95008.56;5092175;28;20470;-54
2022/01/31 02:26:00;;;;;;;0.30;0.20;;;;;;;2.83;54.34;95017.13;5092220;28;20507;-53
2022/01/31 02:28:41;;;;;;;0.30;0.20;;;;;;;2.90;54.29;95015.97;5092133;28;20490;-53
2022/01/31 02:31:10;;;;;;;0.30;0.20;;;;;;;2.40;54.08;94933.75;5092197;28;20428;-53
2022/01/31 02:33:41;;;;;;;5.10;0.60;;;;;;;2.93;54.11;95001.63;5092453;28;20472;-53
2022/01/31 02:36:11;;;;;;;0.30;0.20;;;;;;;2.42;53.66;94963.88;5092460;28;20421;-53
2022/01/31 02:38:40;;;;;;;0.57;0.57;;;;;;;2.58;56.38;95015.50;5091658;28;20493;-53
2022/01/31 02:41:09;;;;;;;0.70;0.70;;;;;;;2.83;55.81;95011.88;5092125;28;20959;-54
2022/01/31 02:43:38;;;;;;;0.30;0.20;;;;;;;3.12;53.95;95009.09;5092382;28;20413;-53
2022/01/31 02:46:27;;;;;;;0.30;0.20;;;;;;;3.08;52.94;95009.81;5092072;28;20424;-53
2022/01/31 02:49:03;;;;;;;0.70;0.67;;;;;;;2.83;52.08;94986.50;5091815;28;20525;-53
2022/01/31 02:51:33;;;;;;;0.20;0.10;;;;;;;2.33;54.52;95004.44;5092007;28;20477;-53
2022/01/31 02:54:03;;;;;;;0.30;0.20;;;;;;;1.49;56.77;94917.69;5091887;28;20514;-53
2022/01/31 02:56:36;;;;;;;0.30;0.20;;;;;;;2.63;55.83;95024.50;5091935;28;21017;-53
2022/01/31 02:59:08;;;;;;;0.20;0.20;;;;;;;2.22;55.42;94991.38;5091839;28;20432;-56
2022/01/31 03:01:38;;;;;;;0.30;0.20;;;;;;;2.68;54.05;95025.44;5091418;28;20485;-54
2022/01/31 03:04:07;;;;;;;0.20;0.20;;;;;;;2.00;53.72;94907.44;5091776;28;20515;-54
2022/01/31 03:06:38;;;;;;;0.30;0.20;;;;;;;2.90;52.75;95015.97;5092171;28;20421;-53
2022/01/31 03:09:07;;;;;;;0.20;0.20;;;;;;;2.42;54.87;95031.88;5091719;28;20842;-53
2022/01/31 03:11:36;;;;;;;0.30;0.20;;;;;;;1.01;55.08;94876.75;5092131;28;20552;-53
2022/01/31 03:14:04;;;;;;;0.30;0.20;;;;;;;2.37;55.77;95002.19;5091705;28;20476;-53
2022/01/31 03:16:35;;;;;;;0.30;0.20;;;;;;;2.87;53.31;95033.94;5092061;28;20432;-53
2022/01/31 03:19:04;;;;;;;0.30;0.20;;;;;;;2.61;54.17;95037.03;5091997;28;20424;-53
2022/01/31 03:21:33;;;;;;;0.30;0.20;;;;;;;2.51;54.74;95014.00;5091718;28;20478;-53
2022/01/31 03:24:04;;;;;;;0.30;0.20;;;;;;;2.76;53.56;95017.22;5095345;28;20432;-53
2022/01/31 03:26:34;;;;;;;0.20;0.20;;;;;;;2.58;53.86;94998.22;5095626;28;20442;-53
2022/01/31 03:29:04;;;;;;;0.30;0.20;;;;;;;2.63;54.10;95035.78;5095890;28;20482;-53
2022/01/31 03:31:33;;;;;;;0.20;0.20;;;;;;;2.56;53.94;95042.91;5095523;28;20925;-54
2022/01/31 03:34:03;;;;;;;0.30;0.30;;;;;;;2.73;53.55;95043.06;5095431;28;20463;-53
2022/01/31 03:36:31;;;;;;;0.20;0.20;;;;;;;2.69;53.50;95031.44;5095310;28;20475;-54
2022/01/31 03:39:00;;;;;;;0.20;0.20;;;;;;;2.68;53.37;95008.94;5095228;28;20459;-53
2022/01/31 03:41:30;;;;;;;0.30;0.20;;;;;;;2.82;52.80;95047.72;5095566;28;20460;-53
2022/01/31 03:43:58;;;;;;;0.30;0.20;;;;;;;2.20;53.78;95017.72;5095257;28;20586;-54
2022/01/31 03:46:27;;;;;;;0.30;0.30;;;;;;;2.40;54.31;95052.19;5095186;28;20466;-53
2022/01/31 03:48:56;;;;;;;0.30;0.20;;;;;;;2.26;54.12;95011.59;5095004;28;20500;-53
2022/01/31 03:51:24;;;;;;;0.20;0.20;;;;;;;2.49;54.41;95053.50;5094708;28;20944;-54
2022/01/31 03:53:53;;;;;;;0.30;0.30;;;;;;;0.94;56.68;94933.47;5094978;28;20599;-53
2022/01/31 03:56:23;;;;;;;3.90;0.40;;;;;;;1.91;55.54;95058.56;5094559;28;20836;-54
2022/01/31 03:58:53;;;;;;;0.80;0.80;;;;;;;2.20;54.85;95054.31;5094749;28;20808;-53
2022/01/31 04:01:24;;;;;;;0.20;0.20;;;;;;;1.79;55.63;95062.16;5094941;28;20432;-53
2022/01/31 04:03:53;;;;;;;0.57;0.57;;;;;;;0.68;57.63;94923.34;5095170;28;20778;-53
2022/01/31 04:06:23;;;;;;;0.30;0.20;;;;;;;1.66;57.62;95046.63;5095138;28;20420;-54
2022/01/31 04:08:52;;;;;;;0.20;0.20;;;;;;;2.00;55.58;95047.81;5095139;28;20855;-53
2022/01/31 04:11:21;;;;;;;0.30;0.20;;;;;;;2.45;54.68;95075.88;5095048;28;20424;-54
2022/01/31 04:13:49;;;;;;;0.30;0.20;;;;;;;2.50;53.93;95065.53;5094559;28;20467;-54
2022/01/31 04:16:22;;;;;;;0.20;0.20;;;;;;;2.53;53.84;95091.25;5094818;28;20867;-54
2022/01/31 04:18:50;;;;;;;0.30;0.20;;;;;;;2.40;53.55;95070.50;5094591;28;20474;-54
2022/01/31 04:21:19;;;;;;;0.20;0.20;;;;;;;2.40;53.54;95059.28;5094627;28;20433;-54
2022/01/31 04:23:50;;;;;;;0.20;0.20;;;;;;;1.90;54.69;95043.91;5094442;28;20527;-54
2022/01/31 04:26:21;;;;;;;10.80;0.50;;;;;;;1.28;54.16;94911.97;5094528;28;20417;-54
2022/01/31 04:29:02;;;;;;;0.20;0.20;;;;;;;2.50;53.66;95096.91;5094731;28;20420;-54
2022/01/31 04:31:51;;;;;;;0.30;0.20;;;;;;;2.14;54.68;95093.63;5094233;28;20967;-54
2022/01/31 04:34:22;;;;;;;0.97;0.97;;;;;;;1.07;56.45;94963.81;5094369;28;20833;-54
2022/01/31 04:36:51;;;;;;;1.30;1.27;;;;;;;0.72;56.51;94895.81;5094310;28;20456;-54
2022/01/31 04:39:20;;;;;;;0.30;0.20;;;;;;;1.77;55.96;95056.34;5094178;28;20920;-54
2022/01/31 04:41:49;;;;;;;0.20;0.20;;;;;;;2.18;54.96;95100.81;5093422;28;20932;-54
2022/01/31 04:44:18;;;;;;;0.20;0.20;;;;;;;2.15;54.72;95071.72;5094501;28;20857;-54
2022/01/31 04:46:49;;;;;;;0.20;0.20;;;;;;;2.38;53.95;95093.47;5094398;28;20959;-54
2022/01/31 04:49:19;;;;;;;0.30;0.20;;;;;;;1.07;54.76;95011.59;5093764;28;20482;-54
2022/01/31 04:51:48;;;;;;;0.60;0.60;;;;;;;2.33;54.48;95097.78;5093846;28;20436;-54
2022/01/31 04:54:16;;;;;;;0.20;0.20;;;;;;;2.31;54.41;95103.25;5094170;28;20555;-54
2022/01/31 04:56:48;;;;;;;0.20;0.20;;;;;;;1.55;54.70;95035.13;5094246;28;20478;-54
2022/01/31 04:59:20;;;;;;;1.27;1.03;;;;;;;1.65;57.08;95124.19;5093799;28;20440;-54
2022/01/31 05:01:50;;;;;;;0.30;0.20;;;;;;;1.82;56.59;95121.81;5094028;28;20489;-54
2022/01/31 05:04:19;;;;;;;0.30;0.30;;;;;;;1.79;55.62;95117.00;5094025;28;20443;-54
2022/01/31 05:06:48;;;;;;;0.30;0.30;;;;;;;1.61;56.77;95120.44;5093678;28;20977;-54
2022/01/31 05:09:17;;;;;;;0.30;0.30;;;;;;;1.65;55.88;95115.56;5093073;28;20428;-54
2022/01/31 05:11:46;;;;;;;0.20;0.20;;;;;;;1.58;57.74;95148.78;5093595;28;20498;-54
2022/01/31 05:14:16;;;;;;;0.40;0.40;;;;;;;1.61;58.50;95137.91;5093733;28;20543;-54
2022/01/31 05:16:44;;;;;;;0.20;0.20;;;;;;;1.88;56.89;95144.44;5093491;28;20429;-54
2022/01/31 05:19:14;;;;;;;0.30;0.20;;;;;;;1.96;57.25;95135.50;5093773;28;20424;-54
2022/01/31 05:21:44;;;;;;;0.30;0.20;;;;;;;0.40;56.96;94916.03;5093459;28;20425;-54
2022/01/31 05:24:12;;;;;;;0.30;0.20;;;;;;;1.86;57.85;95146.47;5093385;28;20447;-54
2022/01/31 05:26:41;;;;;;;0.30;0.23;;;;;;;1.77;58.76;95153.03;5093296;28;20428;-54
2022/01/31 05:29:10;;;;;;;0.30;0.20;;;;;;;1.52;58.42;95107.91;5093484;28;20428;-54
2022/01/31 05:31:39;;;;;;;0.30;0.30;;;;;;;0.88;57.32;95004.78;5093214;28;20428;-54
2022/01/31 05:34:08;;;;;;;0.30;0.20;;;;;;;1.88;57.75;95139.22;5092841;28;20464;-54
2022/01/31 05:36:46;;;;;;;0.70;0.33;;;;;;;1.67;58.18;95147.50;5093138;28;20416;-54
2022/01/31 05:39:15;;;;;;;0.30;0.27;;;;;;;0.26;62.36;95083.94;5092965;28;20428;-54
2022/01/31 05:41:45;;;;;;;0.50;0.50;;;;;;;0.56;65.71;95150.09;5093293;28;20509;-54
2022/01/31 05:44:13;;;;;;;1.03;1.03;;;;;;;1.07;65.02;95144.69;5092651;28;20463;-54
2022/01/31 05:46:42;;;;;;;0.60;0.50;;;;;;;1.56;61.10;95140.38;5092197;28;20421;-54
2022/01/31 05:49:14;;;;;;;0.63;0.63;;;;;;;1.25;65.97;95107.38;5092371;28;20486;-54
2022/01/31 05:51:54;;;;;;;0.80;0.40;;;;;;;1.95;61.23;95126.06;5092704;28;20436;-54
2022/01/31 05:54:23;;;;;;;0.30;0.30;;;;;;;2.28;57.63;95153.38;5092711;28;20472;-54
2022/01/31 05:56:52;;;;;;;0.20;0.20;;;;;;;2.08;58.00;95152.81;5092187;28;20448;-54
2022/01/31 05:59:21;;;;;;;0.30;0.20;;;;;;;1.89;58.34;95139.00;5090852;28;20486;-54
2022/01/31 06:01:50;;;;;;;0.63;0.63;;;;;;;1.84;58.41;95143.28;5090857;28;20456;-54
2022/01/31 06:04:19;;;;;;;2.30;0.77;;;;;;;1.37;59.09;95076.13;5092298;28;20516;-54
2022/01/31 06:06:50;;;;;;;0.47;0.40;;;;;;;1.76;58.38;95143.56;5092310;28;20459;-53
2022/01/31 06:09:23;;;;;;;0.30;0.30;;;;;;;1.85;57.41;95137.03;5092503;28;20432;-53
2022/01/31 06:11:51;;;;;;;0.30;0.20;;;;;;;-3.85;59.67;94400.03;5092230;28;20425;-53
2022/01/31 06:14:20;;;;;;;0.43;0.43;;;;;;;2.22;60.32;95172.56;5092074;28;20537;-53
2022/01/31 06:16:49;;;;;;;0.43;0.43;;;;;;;2.61;57.77;95144.28;5092328;28;20940;-53
2022/01/31 06:19:19;;;;;;;0.20;0.20;;;;;;;3.15;54.45;95178.06;5092568;28;20501;-53
2022/01/31 06:21:49;;;;;;;0.40;0.30;;;;;;;3.82;52.63;95163.56;5091507;28;20486;-53
2022/01/31 06:24:17;;;;;;;0.70;0.70;;;;;;;4.07;51.31;95165.91;5092417;28;20472;-53
2022/01/31 06:26:46;;;;;;;0.40;0.40;;;;;;;3.48;51.19;95098.91;5091506;28;20421;-53
2022/01/31 06:29:15;;;;;;;1.10;0.90;;;;;;;4.60;50.31;95171.66;5092026;28;20428;-53
2022/01/31 06:31:43;;;;;;;1.07;1.07;;;;;;;4.95;48.35;95167.00;5092384;28;20447;-53
2022/01/31 06:34:12;;;;;;;2.20;2.17;;;;;;;5.16;47.79;95178.66;5091220;28;20428;-54
2022/01/31 06:36:42;;;;;;;0.77;0.77;;;;;;;5.23;47.84;95170.59;5092323;28;20429;-53
2022/01/31 06:39:12;;;;;;;1.30;1.10;;;;;;;5.83;47.02;95182.00;5091602;28;20424;-53
2022/01/31 06:41:40;;;;;;;1.50;1.50;;;;;;;5.95;46.12;95193.22;5091814;28;20452;-54
2022/01/31 06:44:08;;;;;;;0.40;0.30;;;;;;;6.12;44.43;95107.16;5091590;28;20912;-54
2022/01/31 06:46:37;;;;;;;1.27;1.23;;;;;;;6.78;44.41;95194.75;5091501;28;20497;-53
2022/01/31 06:49:07;;;;;;;2.13;2.03;;;;;;;6.60;44.29;95192.44;5091440;28;20476;-53
2022/01/31 06:51:36;;;;;;;2.93;2.73;;;;;;;7.03;43.58;95185.22;5090934;28;20468;-53
2022/01/31 06:54:06;;;;;;;3.20;2.87;;;;;;;7.46;43.27;95189.53;5091340;28;20433;-52
2022/01/31 06:56:39;;;;;;;1.90;1.50;;;;;;;7.75;42.16;95176.81;5091758;28;20460;-52
2022/01/31 06:59:08;;;;;;;2.67;2.47;;;;;;;7.44;41.67;95175.03;5095065;28;20482;-52
2022/01/31 07:01:36;;;;;;;4.17;3.77;;;;;;;7.90;40.75;95166.34;5095886;28;20487;-52
2022/01/31 07:04:05;;;;;;;2.00;1.90;;;;;;;8.04;40.18;95161.44;5095746;28;21100;-53
2022/01/31 07:06:35;;;;;;;3.23;3.03;;;;;;;8.69;40.04;95166.97;5095626;28;20427;-52
2022/01/31 07:09:04;;;;;;;17.67;3.67;;;;;;;8.86;39.00;95124.47;5095103;28;20432;-51
2022/01/31 07:11:37;;;;;;;3.30;1.60;;;;;;;9.44;37.30;95168.91;5095934;28;20452;-51
2022/01/31 07:14:24;;;;;;;3.00;2.07;;;;;;;9.94;36.88;95165.38;5095502;28;20463;-51
2022/01/31 07:16:54;;;;;;;1.40;1.37;;;;;;;8.29;35.57;94906.25;5095584;28;20842;-51
2022/01/31 07:19:26;;;;;;;0.90;0.90;;;;;;;10.99;33.31;95151.97;5095616;28;20459;-51
2022/01/31 07:21:55;;;;;;;5.43;3.37;;;;;;;10.30;34.16;95068.09;5095296;28;20866;-51
2022/01/31 07:24:30;;;;;;;2.90;2.80;;;;;;;10.72;33.82;95145.28;5094941;28;20486;-51
2022/01/31 07:26:59;;;;;;;6.60;4.47;;;;;;;11.08;34.55;95151.13;5095116;28;20419;-52
2022/01/31 07:29:29;;;;;;;13.43;3.77;;;;;;;11.20;34.34;95148.94;5095602;28;20864;-52
2022/01/31 07:31:59;;;;;;;5.03;4.63;;;;;;;10.03;35.58;95155.84;5095085;28;20424;-51
2022/01/31 07:34:28;;;;;;;26.63;3.80;;;;;;;10.68;35.41;95143.41;5094661;28;20932;-52
2022/01/31 07:36:56;;;;;;;4.83;2.20;;;;;;;11.19;34.48;95134.06;5095017;28;20507;-52
2022/01/31 07:39:24;;;;;;;9.23;3.10;;;;;;;10.82;35.54;95133.81;5095025;28;20519;-52
2022/01/31 07:41:53;;;;;;;5.10;4.83;;;;;;;11.41;36.04;95130.97;5094262;28;21128;-53
2022/01/31 07:44:22;;;;;;;2.57;1.30;;;;;;;11.58;34.81;95126.06;5095007;28;20477;-54
2022/01/31 07:46:52;;;;;;;3.23;2.63;;;;;;;12.13;34.23;95122.06;5095052;28;20435;-54
2022/01/31 07:49:21;;;;;;;3.00;2.80;;;;;;;12.40;33.46;95118.81;5094626;28;20468;-55
2022/01/31 07:51:50;;;;;;;5.67;2.60;;;;;;;12.53;33.42;95116.25;5094800;28;20865;-56
2022/01/31 07:54:24;;;;;;;6.73;1.50;;;;;;;13.01;33.25;95132.88;5095104;28;20496;-57
2022/01/31 07:56:53;;;;;;;4.47;4.27;;;;;;;13.08;32.75;95105.94;5094658;28;20521;-59
2022/01/31 07:59:21;;;;;;;9.63;1.93;;;;;;;12.64;32.62;95099.09;5094558;28;20929;-59
2022/01/31 08:01:52;;;;;;;3.63;3.00;;;;;;;12.89;32.57;95097.16;5093996;28;20473;-60
2022/01/31 08:04:24;;;;;;;1.13;1.10;;;;;;;12.99;32.11;95095.13;5093968;28;20503;-60
2022/01/31 08:06:53;;;;;;;3.20;3.10;;;;;;;13.42;31.11;95093.16;5094987;28;20420;-60
2022/01/31 08:09:21;;;;;;;0.70;0.70;;;;;;;13.58;31.08;95080.38;5093427;28;20458;-60
2022/01/31 08:11:50;;;;;;;6.70;1.07;;;;;;;14.55;29.36;95081.69;5094724;28;20743;-59
2022/01/31 08:14:19;;;;;;;5.43;1.90;;;;;;;14.80;29.15;95072.31;5093730;28;20432;-59
2022/01/31 08:16:48;;;;;;;3.13;2.40;;;;;;;14.76;29.81;95076.69;5094275;28;20813;-58
2022/01/31 08:19:18;;;;;;;2.27;1.90;;;;;;;14.80;29.50;95063.56;5094232;28;20428;-58
2022/01/31 08:22:06;;;;;;;1.70;1.60;;;;;;;14.93;28.43;94986.09;5094146;28;20456;-57
2022/01/31 08:24:35;;;;;;;4.73;1.13;;;;;;;15.45;26.57;95051.31;5094186;28;20452;-56
2022/01/31 08:27:04;;;;;;;2.93;1.37;;;;;;;15.32;26.62;95051.34;5094543;28;20932;-56
2022/01/31 08:29:36;;;;;;;1.50;1.40;;;;;;;16.02;26.49;95044.19;5093687;28;20424;-56
2022/01/31 08:32:07;;;;;;;2.43;1.93;;;;;;;15.39;26.80;95017.00;5093557;28;20433;-55
2022/01/31 08:37:23;;;;;;;0.80;0.80;;;;;;;16.61;26.56;95056.16;5093432;28;20496;-54
2022/01/31 08:39:52;;;;;;;2.60;1.80;;;;;;;16.18;25.87;95057.94;5094026;28;20503;-56
2022/01/31 08:42:20;;;;;;;1.20;0.90;;;;;;;16.14;25.27;95073.03;5093810;28;20494;-54
2022/01/31 08:44:49;;;;;;;0.60;0.60;;;;;;;16.14;25.11;95054.31;5094129;28;20417;-54
2022/01/31 08:47:18;;;;;;;0.40;0.30;;;;;;;16.63;25.07;95064.66;5093918;28;20417;-54
2022/01/31 08:49:49;;;;;;;3.17;1.57;;;;;;;16.22;24.75;95064.22;5093572;28;20537;-54
2022/01/31 08:52:17;;;;;;;0.70;0.70;;;;;;;16.76;25.10;95069.09;5093486;28;20517;-53
2022/01/31 08:54:46;;;;;;;1.20;0.33;;;;;;;16.47;23.79;95066.16;5094051;28;20409;-54
2022/01/31 08:57:14;;;;;;;1.07;1.07;;;;;;;17.01;24.28;95051.44;5093731;28;20529;-54
2022/01/31 08:59:50;;;;;;;0.40;0.40;;;;;;;16.41;24.22;95056.72;5093057;28;20424;-55
2022/01/31 09:02:25;;;;;;;2.00;1.10;;;;;;;15.75;24.04;95049.75;5093629;28;20888;-54
2022/01/31 09:04:55;;;;;;;1.73;1.13;;;;;;;16.49;22.73;95054.06;5093753;28;20416;-54
2022/01/31 09:07:25;;;;;;;0.40;0.30;;;;;;;17.60;22.17;95045.28;5093751;28;20440;-55
2022/01/31 09:09:54;;;;;;;0.73;0.60;;;;;;;17.81;21.13;95052.63;5093025;28;20432;-55
2022/01/31 09:12:26;;;;;;;0.57;0.57;;;;;;;18.54;20.95;95024.50;5093581;28;20420;-54
2022/01/31 09:14:55;;;;;;;0.40;0.40;;;;;;;18.00;22.43;95034.22;5093470;28;20421;-54
2022/01/31 09:17:24;;;;;;;0.40;0.30;;;;;;;18.66;21.42;95029.94;5093333;28;20513;-54
2022/01/31 09:19:52;;;;;;;12.73;0.97;;;;;;;17.97;20.66;95016.09;5092212;28;20416;-54
2022/01/31 09:22:22;;;;;;;1.03;1.03;;;;;;;17.86;20.86;95033.69;5093343;28;20433;-55
2022/01/31 09:24:51;;;;;;;0.40;0.30;;;;;;;18.06;20.43;95030.28;5093547;28;20838;-55
2022/01/31 09:27:20;;;;;;;0.40;0.30;;;;;;;17.90;20.47;95021.19;5091948;28;20431;-55
2022/01/31 09:29:48;;;;;;;0.50;0.33;;;;;;;17.80;20.66;95019.66;5093240;28;20948;-56
2022/01/31 09:32:22;;;;;;;1.40;1.40;;;;;;;18.56;20.80;95009.66;5093095;28;20561;-56
2022/01/31 09:34:52;;;;;;;0.50;0.30;;;;;;;18.61;20.87;95004.09;5093459;28;20499;-55
2022/01/31 09:37:22;;;;;;;0.40;0.20;;;;;;;16.55;21.15;95013.81;5092723;28;20517;-55
2022/01/31 09:39:51;;;;;;;0.70;0.70;;;;;;;17.47;21.29;95000.66;5093246;28;20440;-55
2022/01/31 09:42:28;;;;;;;0.60;0.47;;;;;;;17.18;21.53;95008.59;5092742;28;20428;-55
2022/01/31 09:45:10;;;;;;;0.30;0.20;;;;;;;18.54;21.51;94993.09;5093114;28;20428;-55
2022/01/31 09:50:27;;;;;;;1.13;0.40;;;;;;;17.15;21.26;94963.72;5091637;28;20471;-54
2022/01/31 09:52:57;;;;;;;0.60;0.60;;;;;;;17.74;20.37;94868.16;5092792;28;20424;-55
2022/01/31 09:55:26;;;;;;;0.53;0.50;;;;;;;18.11;20.86;94968.41;5092961;28;20477;-73
2022/01/31 09:57:55;;;;;;;0.50;0.40;;;;;;;19.35;20.01;94953.03;5092918;28;20545;-69
2022/01/31 10:00:32;;;;;;;1.70;0.57;;;;;;;19.77;20.11;94942.91;5092620;28;20477;-65
2022/01/31 10:03:08;;;;;;;6.43;0.70;;;;;;;18.27;21.29;94953.28;5092052;28;20429;-69
2022/01/31 10:05:39;;;;;;;0.83;0.80;;;;;;;18.83;20.74;94920.53;5092836;28;20447;-69
2022/01/31 10:08:14;;;;;;;0.50;0.40;;;;;;;19.66;20.32;94933.69;5097645;28;20436;-68
2022/01/31 10:10:47;;;;;;;0.70;0.70;;;;;;;20.18;19.74;94926.53;5095023;28;20420;-68
2022/01/31 10:16:28;;;;;;;0.40;0.30;;;;;;;19.51;20.84;94912.84;5091745;28;20408;-67
2022/01/31 10:19:05;;;;;;;0.40;0.20;;;;;;;19.78;20.54;94860.34;5092474;28;20428;-66
2022/01/31 10:21:54;;;;;;;0.40;0.30;;;;;;;20.16;19.95;94853.41;5092840;28;20427;-70
2022/01/31 10:24:27;;;;;;;0.50;0.30;;;;;;;19.88;20.36;94889.47;5091859;28;20436;-68
2022/01/31 10:26:56;;;;;;;0.40;0.30;;;;;;;17.40;20.63;94740.50;5092030;28;20829;-70
2022/01/31 10:29:25;;;;;;;0.40;0.30;;;;;;;17.04;21.92;94903.56;5092600;28;20474;-70
2022/01/31 10:32:01;;;;;;;0.40;0.30;;;;;;;15.57;23.05;94898.50;5092300;28;20486;-71
2022/01/31 10:34:32;;;;;;;0.70;0.40;;;;;;;16.66;22.89;94900.03;5092576;28;20416;-70
2022/01/31 10:37:06;;;;;;;1.23;1.10;;;;;;;16.80;22.61;94895.28;5092012;28;20460;-70
2022/01/31 10:54:13;;;;;;;1.07;1.00;;;;;;;17.60;22.55;94844.28;5091802;28;20550;-68
2022/01/31 10:56:46;;;;;;;0.70;0.70;;;;;;;18.43;21.58;94828.19;5091824;28;20464;-68
2022/01/31 10:59:16;;;;;;;0.53;0.50;;;;;;;17.05;21.89;94822.16;5090854;28;20516;-68
2022/01/31 11:01:49;;;;;;;0.50;0.40;;;;;;;19.90;20.69;94810.00;5091292;28;20459;-67
2022/01/31 11:04:34;;;;;;;0.40;0.40;;;;;;;20.10;20.39;94811.75;5091424;28;20424;-67
2022/01/31 11:07:06;;;;;;;0.40;0.37;;;;;;;20.36;19.55;94814.03;5091890;28;20428;-67
2022/01/31 11:09:35;;;;;;;0.40;0.40;;;;;;;21.19;19.28;94799.66;5091732;28;20429;-67
2022/01/31 11:12:07;;;;;;;0.40;0.30;;;;;;;21.15;19.68;94813.03;5091951;28;20473;-67
2022/01/31 11:14:37;;;;;;;0.40;0.40;;;;;;;21.65;19.19;94793.44;5091796;28;20898;-65
2022/01/31 11:17:10;;;;;;;1.80;0.77;;;;;;;20.35;19.61;94792.81;5091630;28;20838;-67
2022/01/31 11:19:40;;;;;;;1.23;0.60;;;;;;;19.74;20.51;94781.44;5092081;28;20503;-66
2022/01/31 11:22:10;;;;;;;0.50;0.50;;;;;;;18.78;21.05;94756.16;5091465;28;20413;-65
2022/01/31 11:25:03;;;;;;;1.13;1.13;;;;;;;19.97;20.66;94769.06;5091469;28;20526;-62
2022/01/31 11:27:36;;;;;;;0.40;0.37;;;;;;;19.74;20.66;94757.25;5091024;28;20511;-64
2022/01/31 11:30:07;;;;;;;0.57;0.57;;;;;;;20.08;20.15;94744.03;5091935;28;20421;-54
2022/01/31 11:32:38;;;;;;;0.43;0.43;;;;;;;20.89;24.12;94751.59;5091249;28;20933;-53
2022/01/31 11:35:08;;;;;;;0.40;0.30;;;;;;;21.57;19.15;94737.00;5091308;28;20523;-54
2022/01/31 11:37:37;;;;;;;0.40;0.40;;;;;;;20.73;19.79;94736.53;5091584;28;20922;-53
2022/01/31 11:40:09;;;;;;;0.50;0.37;;;;;;;20.09;19.73;94734.81;5091281;28;20464;-55
2022/01/31 11:42:42;;;;;;;8.53;0.77;;;;;;;19.28;20.11;94743.19;5091603;28;20448;-55
2022/01/31 11:45:15;;;;;;;1.70;1.30;;;;;;;18.21;21.31;94734.66;5094764;28;20462;-54
2022/01/31 11:47:49;;;;;;;0.53;0.50;;;;;;;19.02;19.91;94726.66;5095017;28;20444;-55
2022/01/31 11:50:19;;;;;;;0.30;0.30;;;;;;;20.05;19.75;94727.78;5094381;28;20474;-54
2022/01/31 11:52:50;;;;;;;0.40;0.30;;;;;;;21.42;19.48;94717.81;5095024;28;20442;-53
2022/01/31 11:55:21;;;;;;;0.50;0.47;;;;;;;20.25;18.80;94713.38;5093633;28;20432;-55
2022/01/31 11:57:54;;;;;;;0.40;0.40;;;;;;;20.64;18.05;94664.00;5094844;28;20517;-53
2022/01/31 12:00:26;;;;;;;0.40;0.40;;;;;;;19.90;18.17;94705.09;5094327;28;20945;-53
2022/01/31 12:03:01;;;;;;;0.40;0.30;;;;;;;19.40;19.02;94692.16;5094142;28;20425;-53
2022/01/31 12:05:33;;;;;;;0.30;0.30;;;;;;;20.49;17.26;94688.25;5094396;28;20996;-53
2022/01/31 12:08:04;;;;;;;0.30;0.20;;;;;;;19.56;18.19;94670.69;5094693;28;20428;-53
2022/01/31 12:10:37;;;;;;;0.30;0.20;;;;;;;19.74;18.01;94644.31;5094804;28;20454;-66
2022/01/31 12:13:29;;;;;;;0.40;0.33;;;;;;;19.27;18.25;94677.16;5094029;28;20424;-57
2022/01/31 12:16:10;;;;;;;0.40;0.30;;;;;;;19.40;20.36;94675.25;5093798;28;21015;-53
2022/01/31 12:24:27;;;;;;;0.50;0.40;;;;;;;18.19;19.22;94659.13;5094281;28;20440;-54
2022/01/31 12:26:58;;;;;;;0.40;0.30;;;;;;;18.55;18.43;94651.13;5094427;28;20442;-54